createdAt,value
2018-12-21T00:00:33.426Z,8.98
2018-12-21T00:03:00.817Z,8.98
2018-12-21T00:05:28.222Z,8.94
2018-12-21T00:07:55.622Z,8.92
2018-12-21T00:10:23.026Z,8.92
2018-12-21T00:12:50.426Z,8.93
2018-12-21T00:15:17.854Z,8.92
2018-12-21T00:17:45.255Z,8.93
2018-12-21T00:20:12.654Z,8.93
2018-12-21T00:22:40.063Z,8.94
2018-12-21T00:25:07.554Z,8.97
2018-12-21T00:27:34.961Z,8.99
2018-12-21T00:30:02.471Z,8.97
2018-12-21T00:32:35.617Z,8.97
2018-12-21T00:35:08.626Z,8.98
2018-12-21T00:37:41.714Z,8.97
2018-12-21T00:40:14.607Z,8.96
2018-12-21T00:42:44.442Z,8.98
2018-12-21T00:45:13.753Z,8.98
2018-12-21T00:47:41.157Z,8.94
2018-12-21T00:50:09.289Z,8.94
2018-12-21T00:52:36.690Z,8.94
2018-12-21T00:55:04.597Z,8.96
2018-12-21T00:57:32.002Z,8.95
2018-12-21T00:59:59.418Z,8.94
2018-12-21T01:02:26.826Z,8.94
2018-12-21T01:04:54.232Z,8.94
2018-12-21T01:07:21.639Z,8.97
2018-12-21T01:09:49.036Z,8.99
2018-12-21T01:12:16.557Z,9.01
2018-12-21T01:14:43.974Z,9.03
2018-12-21T01:17:11.377Z,9.02
2018-12-21T01:19:38.881Z,9.03
2018-12-21T01:22:06.323Z,9.03
2018-12-21T01:24:33.720Z,9.06
2018-12-21T01:27:01.121Z,9.10
2018-12-21T01:29:28.530Z,9.11
2018-12-21T01:31:55.937Z,9.10
2018-12-21T01:34:23.347Z,9.11
2018-12-21T01:36:50.753Z,9.10
2018-12-21T01:39:18.467Z,9.11
2018-12-21T01:41:45.867Z,9.08
2018-12-21T01:44:13.272Z,9.07
2018-12-21T01:46:40.758Z,9.06
2018-12-21T01:49:08.161Z,9.07
2018-12-21T01:51:35.570Z,9.10
2018-12-21T01:54:02.974Z,9.10
2018-12-21T01:56:30.369Z,9.13
2018-12-21T01:58:57.786Z,9.14
2018-12-21T02:01:25.186Z,9.17
2018-12-21T02:03:52.593Z,9.19
2018-12-21T02:06:19.995Z,9.19
2018-12-21T02:08:47.414Z,9.21
2018-12-21T02:11:14.802Z,9.22
2018-12-21T02:13:42.215Z,9.18
2018-12-21T02:16:09.615Z,9.15
2018-12-21T02:18:37.024Z,9.16
2018-12-21T02:21:04.430Z,9.15
2018-12-21T02:23:31.839Z,9.14
2018-12-21T02:25:59.249Z,9.11
2018-12-21T02:28:26.654Z,9.07
2018-12-21T02:30:54.061Z,9.06
2018-12-21T02:33:21.548Z,9.06
2018-12-21T02:35:48.952Z,9.08
2018-12-21T02:38:16.354Z,9.09
2018-12-21T02:40:43.750Z,9.08
2018-12-21T02:43:11.182Z,9.07
2018-12-21T02:45:38.585Z,9.07
2018-12-21T02:48:05.966Z,9.08
2018-12-21T02:50:33.380Z,9.09
2018-12-21T02:53:00.763Z,9.07
2018-12-21T02:55:28.163Z,9.04
2018-12-21T02:57:55.573Z,9.01
2018-12-21T03:00:22.987Z,8.99
2018-12-21T03:02:50.472Z,8.98
2018-12-21T03:05:17.870Z,8.99
2018-12-21T03:07:45.266Z,8.96
2018-12-21T03:10:12.677Z,8.97
2018-12-21T03:12:40.074Z,8.95
2018-12-21T03:15:07.603Z,8.94
2018-12-21T03:17:34.987Z,8.93
2018-12-21T03:20:02.396Z,8.94
2018-12-21T03:22:29.876Z,8.96
2018-12-21T03:24:57.273Z,8.98
2018-12-21T03:27:24.665Z,8.94
2018-12-21T03:29:52.075Z,8.95
2018-12-21T03:32:19.465Z,8.93
2018-12-21T03:34:46.963Z,8.92
2018-12-21T03:37:14.356Z,8.90
2018-12-21T03:39:41.757Z,8.91
2018-12-21T03:42:09.175Z,8.91
2018-12-21T03:44:36.577Z,8.91
2018-12-21T03:47:03.972Z,8.92
2018-12-21T03:49:31.386Z,8.91
2018-12-21T03:51:58.780Z,8.88
2018-12-21T03:54:26.184Z,8.83
2018-12-21T03:56:53.586Z,8.82
2018-12-21T03:59:20.986Z,8.81
2018-12-21T04:01:48.380Z,8.79
2018-12-21T04:04:15.779Z,8.78
2018-12-21T04:06:43.178Z,8.78
2018-12-21T04:09:10.569Z,8.79
2018-12-21T04:11:37.974Z,8.76
2018-12-21T04:14:05.366Z,8.77
2018-12-21T04:16:32.781Z,8.76
2018-12-21T04:19:00.184Z,8.75
2018-12-21T04:21:27.676Z,8.73
2018-12-21T04:23:55.063Z,8.72
2018-12-21T04:26:22.463Z,8.69
2018-12-21T04:28:49.927Z,8.68
2018-12-21T04:31:17.351Z,8.64
2018-12-21T04:33:44.745Z,8.62
2018-12-21T04:36:12.158Z,8.61
2018-12-21T04:38:39.570Z,8.61
2018-12-21T04:41:07.070Z,8.60
2018-12-21T04:43:34.464Z,8.55
2018-12-21T04:46:01.864Z,8.55
2018-12-21T04:48:29.260Z,8.55
2018-12-21T04:50:56.669Z,8.55
2018-12-21T04:53:24.059Z,8.54
2018-12-21T04:55:51.745Z,8.53
2018-12-21T04:58:19.162Z,8.52
2018-12-21T05:00:46.647Z,8.50
2018-12-21T05:03:14.084Z,8.52
2018-12-21T05:05:41.475Z,8.54
2018-12-21T05:08:08.878Z,8.53
2018-12-21T05:10:36.270Z,8.53
2018-12-21T05:13:03.675Z,8.54
2018-12-21T05:15:31.076Z,8.55
2018-12-21T05:17:58.485Z,8.56
2018-12-21T05:20:25.870Z,8.58
2018-12-21T05:22:53.281Z,8.59
2018-12-21T05:25:20.665Z,8.58
2018-12-21T05:27:48.098Z,8.55
2018-12-21T05:30:15.499Z,8.54
2018-12-21T05:32:42.907Z,8.54
2018-12-21T05:35:10.299Z,8.55
2018-12-21T05:37:37.710Z,8.55
2018-12-21T05:40:05.733Z,8.55
2018-12-21T05:42:33.138Z,8.56
2018-12-21T05:45:00.537Z,8.59
2018-12-21T05:47:27.946Z,8.61
2018-12-21T05:49:55.341Z,8.65
2018-12-21T05:52:22.758Z,8.67
2018-12-21T05:54:50.155Z,8.69
2018-12-21T05:57:17.546Z,8.65
2018-12-21T05:59:44.947Z,8.64
2018-12-21T06:02:12.347Z,8.67
2018-12-21T06:04:39.745Z,8.67
2018-12-21T06:07:07.141Z,8.67
2018-12-21T06:09:34.546Z,8.65
2018-12-21T06:12:01.947Z,8.64
2018-12-21T06:14:29.350Z,8.65
2018-12-21T06:16:56.737Z,8.62
2018-12-21T06:19:24.154Z,8.57
2018-12-21T06:21:51.542Z,8.59
2018-12-21T06:24:18.942Z,8.60
2018-12-21T06:26:46.338Z,8.63
2018-12-21T06:31:47.479Z,8.64
2018-12-21T06:34:14.867Z,8.65
2018-12-21T06:36:42.267Z,8.66
2018-12-21T06:39:09.667Z,8.65
2018-12-21T06:41:37.061Z,8.68
2018-12-21T06:44:04.493Z,8.66
2018-12-21T06:46:32.070Z,8.66
2018-12-21T06:48:59.470Z,8.66
2018-12-21T06:51:26.878Z,8.64
2018-12-21T06:53:54.277Z,8.63
2018-12-21T06:56:21.679Z,8.63
2018-12-21T06:58:49.086Z,8.65
2018-12-21T07:01:16.506Z,8.67
2018-12-21T07:03:43.903Z,8.66
2018-12-21T07:06:11.303Z,8.64
2018-12-21T07:08:38.692Z,8.64
2018-12-21T07:11:06.094Z,8.65
2018-12-21T07:13:33.489Z,8.66
2018-12-21T07:16:00.890Z,8.67
2018-12-21T07:18:28.289Z,8.68
2018-12-21T07:20:55.698Z,8.68
2018-12-21T07:23:27.140Z,8.66
2018-12-21T07:25:52.505Z,8.67
2018-12-21T07:28:19.894Z,8.68
2018-12-21T07:30:47.302Z,8.69
2018-12-21T07:33:14.706Z,8.68
2018-12-21T07:35:42.132Z,8.68
2018-12-21T07:38:09.530Z,8.67
2018-12-21T07:40:37.052Z,8.69
2018-12-21T07:43:04.442Z,8.67
2018-12-21T07:45:31.862Z,8.67
2018-12-21T07:47:59.254Z,8.69
2018-12-21T07:50:26.670Z,8.68
2018-12-21T07:52:54.059Z,8.66
2018-12-21T07:55:21.451Z,8.63
2018-12-21T07:57:48.849Z,8.59
2018-12-21T08:00:16.241Z,8.60
2018-12-21T08:02:43.642Z,8.61
2018-12-21T08:05:11.035Z,8.59
2018-12-21T08:07:38.448Z,8.58
2018-12-21T08:10:10.136Z,8.54
2018-12-21T08:12:37.534Z,8.54
2018-12-21T08:15:05.542Z,8.52
2018-12-21T08:17:32.958Z,8.52
2018-12-21T08:20:00.351Z,8.49
2018-12-21T08:22:27.755Z,8.50
2018-12-21T08:24:55.159Z,8.48
2018-12-21T08:27:22.562Z,8.50
2018-12-21T08:29:49.967Z,8.50
2018-12-21T08:32:17.390Z,8.50
2018-12-21T08:34:44.782Z,8.49
2018-12-21T08:37:12.198Z,8.48
2018-12-21T08:39:39.586Z,8.49
2018-12-21T08:42:06.995Z,8.53
2018-12-21T08:44:34.386Z,8.57
2018-12-21T08:47:01.817Z,8.61
2018-12-21T08:49:29.206Z,8.62
2018-12-21T08:51:56.616Z,8.63
2018-12-21T08:54:24.024Z,8.62
2018-12-21T08:56:51.511Z,8.62
2018-12-21T08:59:18.918Z,8.60
2018-12-21T09:01:46.314Z,8.61
2018-12-21T09:04:13.716Z,8.60
2018-12-21T09:06:41.107Z,8.64
2018-12-21T09:09:08.630Z,8.63
2018-12-21T09:11:36.027Z,8.64
2018-12-21T09:14:03.421Z,8.62
2018-12-21T09:16:30.814Z,8.60
2018-12-21T09:18:58.265Z,8.59
2018-12-21T09:21:25.718Z,8.62
2018-12-21T09:24:00.877Z,8.65
2018-12-21T09:26:22.518Z,8.67
2018-12-21T09:28:49.918Z,8.66
2018-12-21T09:31:17.308Z,8.66
2018-12-21T09:33:44.714Z,8.70
2018-12-21T09:36:12.110Z,8.72
2018-12-21T09:38:39.505Z,8.75
2018-12-21T09:41:06.912Z,8.73
2018-12-21T09:43:34.333Z,8.72
2018-12-21T09:46:01.735Z,8.71
2018-12-21T09:48:29.121Z,8.68
2018-12-21T09:50:56.550Z,8.66
2018-12-21T09:53:23.945Z,8.65
2018-12-21T09:55:51.352Z,8.61
2018-12-21T09:58:18.738Z,8.59
2018-12-21T10:00:46.142Z,8.57
2018-12-21T10:03:13.534Z,8.59
2018-12-21T10:05:40.946Z,8.57
2018-12-21T10:08:08.340Z,8.56
2018-12-21T10:10:35.752Z,8.53
2018-12-21T10:13:03.146Z,8.52
2018-12-21T10:15:30.549Z,8.52
2018-12-21T10:17:57.942Z,8.53
2018-12-21T10:20:25.347Z,8.53
2018-12-21T10:22:52.739Z,8.54
2018-12-21T10:25:20.148Z,8.56
2018-12-21T10:27:47.538Z,8.55
2018-12-21T10:30:14.941Z,8.55
2018-12-21T10:32:42.348Z,8.56
2018-12-21T10:35:09.751Z,8.59
2018-12-21T10:37:37.142Z,8.59
2018-12-21T10:40:06.306Z,8.60
2018-12-21T10:42:33.705Z,8.59
2018-12-21T10:45:01.106Z,8.59
2018-12-21T10:47:28.502Z,8.61
2018-12-21T10:49:55.898Z,8.62
2018-12-21T10:52:23.294Z,8.63
2018-12-21T10:54:50.689Z,8.64
2018-12-21T10:57:18.179Z,8.63
2018-12-21T10:59:45.575Z,8.62
2018-12-21T11:02:12.965Z,8.62
2018-12-21T11:04:40.363Z,8.62
2018-12-21T11:07:07.758Z,8.63
2018-12-21T11:09:35.155Z,8.67
2018-12-21T11:12:02.560Z,8.69
2018-12-21T11:14:30.030Z,8.71
2018-12-21T11:16:57.441Z,8.71
2018-12-21T11:19:24.834Z,8.70
2018-12-21T11:21:52.234Z,8.70
2018-12-21T11:24:19.626Z,8.72
2018-12-21T11:26:47.845Z,8.72
2018-12-21T11:29:15.231Z,8.72
2018-12-21T11:31:42.638Z,8.72
2018-12-21T11:34:10.042Z,8.71
2018-12-21T11:36:37.525Z,8.67
2018-12-21T11:39:06.061Z,8.65
2018-12-21T11:41:33.499Z,8.66
2018-12-21T11:44:00.886Z,8.66
2018-12-21T11:46:28.276Z,8.65
2018-12-21T11:48:55.677Z,8.64
2018-12-21T11:51:23.071Z,8.63
2018-12-21T11:53:50.476Z,8.64
2018-12-21T11:56:17.865Z,8.66
2018-12-21T11:58:45.270Z,8.67
2018-12-21T12:01:12.665Z,8.66
2018-12-21T12:03:40.054Z,8.69
2018-12-21T12:06:07.449Z,8.72
2018-12-21T12:08:34.847Z,8.74
2018-12-21T12:11:02.246Z,8.73
2018-12-21T12:13:29.651Z,8.73
2018-12-21T12:15:57.048Z,8.71
2018-12-21T12:18:24.445Z,8.70
2018-12-21T12:20:51.838Z,8.70
2018-12-21T12:23:19.242Z,8.71
2018-12-21T12:25:46.634Z,8.68
2018-12-21T12:28:14.035Z,8.70
2018-12-21T12:30:41.430Z,8.69
2018-12-21T12:33:08.831Z,8.69
2018-12-21T12:35:36.224Z,8.66
2018-12-21T12:38:03.623Z,8.67
2018-12-21T12:40:31.010Z,8.68
2018-12-21T12:42:58.422Z,8.69
2018-12-21T12:45:25.822Z,8.71
2018-12-21T12:47:53.223Z,8.71
2018-12-21T12:50:20.802Z,8.72
2018-12-21T12:52:48.191Z,8.72
2018-12-21T12:55:15.683Z,8.70
2018-12-21T12:57:43.075Z,8.69
2018-12-21T13:00:11.032Z,8.67
2018-12-21T13:02:38.486Z,8.66
2018-12-21T13:05:06.309Z,8.64
2018-12-21T13:07:33.686Z,8.64
2018-12-21T13:10:01.160Z,8.63
2018-12-21T13:12:28.542Z,8.61
2018-12-21T13:14:55.946Z,8.61
2018-12-21T13:17:23.337Z,8.59
2018-12-21T13:19:50.735Z,8.58
2018-12-21T13:22:18.142Z,8.56
2018-12-21T13:24:45.527Z,8.55
2018-12-21T13:27:12.915Z,8.55
2018-12-21T13:29:40.322Z,8.52
2018-12-21T13:32:07.715Z,8.50
2018-12-21T13:34:35.114Z,8.46
2018-12-21T13:37:02.514Z,8.48
2018-12-21T13:39:29.910Z,8.47
2018-12-21T13:41:57.302Z,8.47
2018-12-21T13:44:24.698Z,8.45
2018-12-21T13:46:52.085Z,8.44
2018-12-21T13:49:19.485Z,8.48
2018-12-21T13:51:46.870Z,8.54
2018-12-21T13:54:14.293Z,8.54
2018-12-21T13:56:43.090Z,8.52
2018-12-21T13:59:10.673Z,8.53
2018-12-21T14:01:38.074Z,8.50
2018-12-21T14:04:05.463Z,8.48
2018-12-21T14:06:32.863Z,8.50
2018-12-21T14:09:00.250Z,8.47
2018-12-21T14:11:27.661Z,8.47
2018-12-21T14:13:55.063Z,8.43
2018-12-21T14:16:22.458Z,8.42
2018-12-21T14:18:49.850Z,8.41
2018-12-21T14:21:17.250Z,8.41
2018-12-21T14:23:44.637Z,8.43
2018-12-21T14:26:12.038Z,8.46
2018-12-21T14:28:39.508Z,8.47
2018-12-21T14:31:07.532Z,8.48
2018-12-21T14:33:35.021Z,8.50
2018-12-21T14:36:02.415Z,8.48
2018-12-21T14:38:29.805Z,8.48
2018-12-21T14:40:57.200Z,8.46
2018-12-21T14:43:24.590Z,8.47
2018-12-21T14:45:51.987Z,8.46
2018-12-21T14:48:19.369Z,8.44
2018-12-21T14:50:46.770Z,8.44
2018-12-21T14:53:14.163Z,8.45
2018-12-21T14:55:41.546Z,8.45
2018-12-21T14:58:08.946Z,8.47
2018-12-21T15:00:36.334Z,8.46
2018-12-21T15:03:03.730Z,8.44
2018-12-21T15:05:31.122Z,8.43
2018-12-21T15:07:58.518Z,8.44
2018-12-21T15:10:25.907Z,8.45
2018-12-21T15:12:53.304Z,8.46
2018-12-21T15:15:20.694Z,8.46
2018-12-21T15:17:48.090Z,8.46
2018-12-21T15:20:15.474Z,8.46
2018-12-21T15:22:42.873Z,8.44
2018-12-21T15:25:10.266Z,8.43
2018-12-21T15:27:37.661Z,8.43
2018-12-21T15:30:07.087Z,8.43
2018-12-21T15:32:34.482Z,8.43
2018-12-21T15:35:01.867Z,8.42
2018-12-21T15:37:29.271Z,8.42
2018-12-21T15:39:56.665Z,8.41
2018-12-21T15:42:24.070Z,8.42
2018-12-21T15:44:51.455Z,8.45
2018-12-21T15:47:18.846Z,8.47
2018-12-21T15:49:46.246Z,8.48
2018-12-21T15:52:13.634Z,8.48
2018-12-21T15:54:41.035Z,8.48
2018-12-21T15:57:08.422Z,8.50
2018-12-21T15:59:35.830Z,8.52
2018-12-21T16:02:03.226Z,8.55
2018-12-21T16:04:30.622Z,8.58
2018-12-21T16:06:58.009Z,8.61
2018-12-21T16:09:25.413Z,8.67
2018-12-21T16:11:52.887Z,8.69
2018-12-21T16:14:20.282Z,8.72
2018-12-21T16:16:47.677Z,8.77
2018-12-21T16:19:15.075Z,8.83
2018-12-21T16:21:43.622Z,8.86
2018-12-21T16:24:11.166Z,8.85
2018-12-21T16:26:38.554Z,8.83
2018-12-21T16:29:05.962Z,8.83
2018-12-21T16:31:33.371Z,8.82
2018-12-21T16:34:00.771Z,8.83
2018-12-21T16:36:28.189Z,8.88
2018-12-21T16:38:55.596Z,8.96
2018-12-21T16:41:22.978Z,9.03
2018-12-21T16:43:50.382Z,9.12
2018-12-21T16:46:17.768Z,9.19
2018-12-21T16:48:47.227Z,9.25
2018-12-21T16:51:14.567Z,9.31
2018-12-21T16:53:41.974Z,9.38
2018-12-21T16:56:12.631Z,9.46
2018-12-21T16:58:38.754Z,9.52
2018-12-21T17:01:06.155Z,9.59
2018-12-21T17:03:33.543Z,9.65
2018-12-21T17:06:01.360Z,9.71
2018-12-21T17:08:28.761Z,9.77
2018-12-21T17:10:56.147Z,9.84
2018-12-21T17:13:23.539Z,9.89
2018-12-21T17:15:50.938Z,9.96
2018-12-21T17:18:18.640Z,10.04
2018-12-21T17:20:46.320Z,10.11
2018-12-21T17:23:13.915Z,10.20
2018-12-21T17:25:41.475Z,10.28
2018-12-21T17:28:09.109Z,10.35
2018-12-21T17:30:36.797Z,10.40
2018-12-21T17:33:04.426Z,10.49
2018-12-21T17:35:32.142Z,10.55
2018-12-21T17:37:59.834Z,10.63
2018-12-21T17:40:27.609Z,10.69
2018-12-21T17:42:55.255Z,10.74
2018-12-21T17:45:22.959Z,10.83
2018-12-21T17:47:50.681Z,10.88
2018-12-21T17:50:18.468Z,10.96
2018-12-21T17:52:46.134Z,11.01
2018-12-21T17:55:13.773Z,11.06
2018-12-21T17:57:41.604Z,11.13
2018-12-21T18:00:12.723Z,11.20
2018-12-21T18:02:40.645Z,11.26
2018-12-21T18:05:08.180Z,11.32
2018-12-21T18:07:35.979Z,11.37
2018-12-21T18:10:06.902Z,11.42
2018-12-21T18:12:34.462Z,11.46
2018-12-21T18:15:02.130Z,11.49
2018-12-21T18:17:29.702Z,11.51
2018-12-21T18:19:57.336Z,11.53
2018-12-21T18:22:24.902Z,11.55
2018-12-21T18:24:52.459Z,11.57
2018-12-21T18:27:20.135Z,11.59
2018-12-21T18:29:48.246Z,11.61
2018-12-21T18:32:19.334Z,11.60
2018-12-21T18:34:47.275Z,11.61
2018-12-21T18:37:25.168Z,11.59
2018-12-21T18:39:52.795Z,11.59
2018-12-21T18:42:20.467Z,11.57
2018-12-21T18:44:48.190Z,11.57
2018-12-21T18:47:16.165Z,11.56
2018-12-21T18:49:43.869Z,11.55
2018-12-21T18:52:12.311Z,11.53
2018-12-21T18:54:39.928Z,11.53
2018-12-21T18:57:07.535Z,11.53
2018-12-21T18:59:37.798Z,11.49
2018-12-21T19:02:05.606Z,11.45
2018-12-21T19:04:34.079Z,11.41
2018-12-21T19:07:01.698Z,11.41
2018-12-21T19:09:29.499Z,11.39
2018-12-21T19:11:57.539Z,11.38
2018-12-21T19:14:25.217Z,11.37
2018-12-21T19:16:54.438Z,11.35
2018-12-21T19:19:24.314Z,11.30
2018-12-21T19:21:52.088Z,11.28
2018-12-21T19:24:20.307Z,11.28
2018-12-21T19:26:55.599Z,11.29
2018-12-21T19:29:18.176Z,11.25
2018-12-21T19:31:46.055Z,11.24
2018-12-21T19:34:14.208Z,11.23
2018-12-21T19:36:41.880Z,11.22
2018-12-21T19:39:09.942Z,11.21
2018-12-21T19:41:37.387Z,11.21
2018-12-21T19:44:04.796Z,11.21
2018-12-21T19:46:32.194Z,11.21
2018-12-21T19:48:59.606Z,11.21
2018-12-21T19:51:26.998Z,11.21
2018-12-21T19:53:54.442Z,11.21
2018-12-21T19:56:22.367Z,11.20
2018-12-21T19:58:49.770Z,11.20
2018-12-21T20:01:17.166Z,11.21
2018-12-21T20:03:44.624Z,11.18
2018-12-21T20:06:12.010Z,11.20
2018-12-21T20:08:39.406Z,11.20
2018-12-21T20:11:07.258Z,11.20
2018-12-21T20:13:34.650Z,11.15
2018-12-21T20:16:02.054Z,11.11
2018-12-21T20:18:29.449Z,11.07
2018-12-21T20:20:56.854Z,11.03
2018-12-21T20:23:24.248Z,10.97
2018-12-21T20:25:51.650Z,10.95
2018-12-21T20:28:19.042Z,10.91
2018-12-21T20:30:46.463Z,10.86
2018-12-21T20:33:14.674Z,10.82
2018-12-21T20:35:42.079Z,10.81
2018-12-21T20:38:09.469Z,10.78
2018-12-21T20:40:36.873Z,10.75
2018-12-21T20:43:04.705Z,10.69
2018-12-21T20:45:32.098Z,10.66
2018-12-21T20:47:59.491Z,10.59
2018-12-21T20:50:26.894Z,10.54
2018-12-21T20:52:54.294Z,10.50
2018-12-21T20:55:21.730Z,10.44
2018-12-21T20:57:49.341Z,10.39
2018-12-21T21:00:16.749Z,10.36
2018-12-21T21:02:44.147Z,10.30
2018-12-21T21:05:11.554Z,10.24
2018-12-21T21:07:38.961Z,10.18
2018-12-21T21:10:10.091Z,10.12
2018-12-21T21:12:37.488Z,10.06
2018-12-21T21:15:08.810Z,10.01
2018-12-21T21:17:36.198Z,9.97
2018-12-21T21:20:07.351Z,9.88
2018-12-21T21:22:34.749Z,9.82
2018-12-21T21:25:02.162Z,9.78
2018-12-21T21:27:30.495Z,9.75
2018-12-21T21:29:58.845Z,9.73
2018-12-21T21:32:26.441Z,9.69
2018-12-21T21:34:53.829Z,9.63
2018-12-21T21:37:21.217Z,9.56
2018-12-21T21:39:48.611Z,9.55
2018-12-21T21:42:16.001Z,9.48
2018-12-21T21:44:43.397Z,9.46
2018-12-21T21:47:10.797Z,9.41
2018-12-21T21:49:38.274Z,9.39
2018-12-21T21:52:05.689Z,9.33
2018-12-21T21:54:33.077Z,9.30
2018-12-21T21:57:00.477Z,9.29
2018-12-21T21:59:27.869Z,9.30
2018-12-21T22:01:55.265Z,9.31
2018-12-21T22:04:22.658Z,9.31
2018-12-21T22:06:50.146Z,9.33
2018-12-21T22:09:17.535Z,9.33
2018-12-21T22:11:44.938Z,9.33
2018-12-21T22:14:12.323Z,9.31
2018-12-21T22:16:39.731Z,9.33
2018-12-21T22:19:07.118Z,9.33
2018-12-21T22:21:34.536Z,9.33
2018-12-21T22:24:01.927Z,9.33
2018-12-21T22:26:29.314Z,9.31
2018-12-21T22:28:56.720Z,9.26
2018-12-21T22:31:24.114Z,9.22
2018-12-21T22:33:51.510Z,9.20
2018-12-21T22:36:18.901Z,9.19
2018-12-21T22:38:46.290Z,9.18
2018-12-21T22:41:13.682Z,9.17
2018-12-21T22:43:41.079Z,9.17
2018-12-21T22:46:08.465Z,9.17
2018-12-21T22:48:35.862Z,9.20
2018-12-21T22:51:03.256Z,9.23
2018-12-21T22:53:30.660Z,9.18
2018-12-21T22:55:58.053Z,9.20
2018-12-21T22:58:25.449Z,9.20
2018-12-21T23:00:52.834Z,9.17
2018-12-21T23:03:20.238Z,9.15
2018-12-21T23:05:47.630Z,9.17
2018-12-21T23:08:15.026Z,9.16
2018-12-21T23:10:42.414Z,9.15
2018-12-21T23:13:09.810Z,9.12
2018-12-21T23:15:37.194Z,9.17
2018-12-21T23:18:04.599Z,9.18
2018-12-21T23:20:31.990Z,9.14
2018-12-21T23:22:59.410Z,9.15
2018-12-21T23:25:26.790Z,9.17
2018-12-21T23:27:54.181Z,9.16
2018-12-21T23:30:21.586Z,9.15
2018-12-21T23:32:48.974Z,9.15
2018-12-21T23:35:16.382Z,9.17
2018-12-21T23:37:43.765Z,9.18
2018-12-21T23:40:11.167Z,9.17
2018-12-21T23:42:38.554Z,9.15
2018-12-21T23:45:06.390Z,9.13
2018-12-21T23:47:33.783Z,9.12
2018-12-21T23:50:01.177Z,9.05
2018-12-21T23:52:28.661Z,9.05
2018-12-21T23:54:56.057Z,8.99
2018-12-21T23:57:23.450Z,8.98
2018-12-21T23:59:50.842Z,8.99
